カーディフ の空港の天気 - METARとTAF

カーディフ空港 ( EGFF / CWL ) - イギリス カーディフ
飛行場実況気象(Metar)
観測時間07/16 16:50 BST (07/16 15:50 UTC)
風向・風速西 6m/s
視程10km以上
天気現象
なし
気温19℃
湿度83%
気圧1022hPa
METAREGFF 161550Z AUTO 28012KT 9999 NCD 19/16 Q1022
過去の天気等 Google飛行場航空写真 Wunderground天気予報

過去48時間のMETAR

飛行場予報(TAF)
発表時間: 7/16 12:03 BST (7/16 11:03 UTC)
予報対象時間: 16日13時 BST ~ 17日13時 BST
風向・風速西 6m/s
視程10km以上
全天の4割程度の雲 雲底高度 910m
16日22時 BST ~ 17日11時 BST に一時的に
視程4000m
天気現象もや
全天の8割程度の雲 雲底高度 120m
17日1時 BST から 確率 30% で
視程300m
天気現象
全天の8割程度の雲 雲底高度 30m
TAF EGFF 161103Z 1612/1712 28012KT 9999 SCT030
TEMPO 1621/1710 4000 BR BKN004
PROB30 1700/1709 0300 FG BKN001